sensor_id;sensor_type;location;lat;lon;timestamp;P1;durP1;ratioP1;P2;durP2;ratioP2
14776;SDS011;7480;43.124;25.686;2023-05-15T00:01:59;4.10;;;2.93;;
14776;SDS011;7480;43.124;25.686;2023-05-15T00:04:27;2.63;;;2.20;;
14776;SDS011;7480;43.124;25.686;2023-05-15T00:06:53;4.30;;;2.70;;
14776;SDS011;7480;43.124;25.686;2023-05-15T00:09:20;4.23;;;2.50;;
14776;SDS011;7480;43.124;25.686;2023-05-15T00:11:46;6.17;;;2.87;;
14776;SDS011;7480;43.124;25.686;2023-05-15T00:14:13;3.43;;;2.70;;
14776;SDS011;7480;43.124;25.686;2023-05-15T00:16:39;3.33;;;3.03;;
14776;SDS011;7480;43.124;25.686;2023-05-15T00:19:06;2.33;;;2.13;;
14776;SDS011;7480;43.124;25.686;2023-05-15T00:21:33;3.00;;;2.70;;
14776;SDS011;7480;43.124;25.686;2023-05-15T00:23:59;3.77;;;2.80;;
14776;SDS011;7480;43.124;25.686;2023-05-15T00:26:26;5.13;;;3.13;;
14776;SDS011;7480;43.124;25.686;2023-05-15T00:28:52;4.03;;;2.77;;
14776;SDS011;7480;43.124;25.686;2023-05-15T00:31:19;6.03;;;2.83;;
14776;SDS011;7480;43.124;25.686;2023-05-15T00:33:45;6.60;;;2.83;;
14776;SDS011;7480;43.124;25.686;2023-05-15T00:36:12;3.87;;;2.60;;
14776;SDS011;7480;43.124;25.686;2023-05-15T00:38:39;2.83;;;2.57;;
14776;SDS011;7480;43.124;25.686;2023-05-15T00:41:05;2.67;;;2.20;;
14776;SDS011;7480;43.124;25.686;2023-05-15T00:43:32;4.17;;;2.37;;
14776;SDS011;7480;43.124;25.686;2023-05-15T00:46:00;3.87;;;2.63;;
14776;SDS011;7480;43.124;25.686;2023-05-15T00:48:27;3.00;;;2.40;;
14776;SDS011;7480;43.124;25.686;2023-05-15T00:50:54;2.43;;;2.23;;
14776;SDS011;7480;43.124;25.686;2023-05-15T00:53:21;2.60;;;2.40;;
14776;SDS011;7480;43.124;25.686;2023-05-15T00:55:48;5.63;;;2.53;;
14776;SDS011;7480;43.124;25.686;2023-05-15T00:58:15;2.80;;;2.50;;
14776;SDS011;7480;43.124;25.686;2023-05-15T01:00:42;3.03;;;2.40;;
14776;SDS011;7480;43.124;25.686;2023-05-15T01:03:08;6.33;;;2.57;;
14776;SDS011;7480;43.124;25.686;2023-05-15T01:05:35;3.07;;;2.63;;
14776;SDS011;7480;43.124;25.686;2023-05-15T01:10:47;4.03;;;2.90;;
14776;SDS011;7480;43.124;25.686;2023-05-15T01:13:20;2.60;;;2.30;;
14776;SDS011;7480;43.124;25.686;2023-05-15T01:15:47;5.00;;;2.87;;
14776;SDS011;7480;43.124;25.686;2023-05-15T01:18:14;3.33;;;2.77;;
14776;SDS011;7480;43.124;25.686;2023-05-15T01:23:50;2.60;;;2.40;;
14776;SDS011;7480;43.124;25.686;2023-05-15T01:29:20;4.17;;;2.50;;
14776;SDS011;7480;43.124;25.686;2023-05-15T01:31:49;4.00;;;2.60;;
14776;SDS011;7480;43.124;25.686;2023-05-15T01:34:19;4.20;;;2.27;;
14776;SDS011;7480;43.124;25.686;2023-05-15T01:36:50;2.80;;;2.43;;
14776;SDS011;7480;43.124;25.686;2023-05-15T01:39:19;4.03;;;2.50;;
14776;SDS011;7480;43.124;25.686;2023-05-15T01:41:50;2.50;;;2.30;;
14776;SDS011;7480;43.124;25.686;2023-05-15T01:44:29;3.10;;;2.80;;
14776;SDS011;7480;43.124;25.686;2023-05-15T01:46:58;3.27;;;2.70;;
14776;SDS011;7480;43.124;25.686;2023-05-15T01:49:26;2.53;;;2.30;;
14776;SDS011;7480;43.124;25.686;2023-05-15T01:51:58;3.93;;;2.50;;
14776;SDS011;7480;43.124;25.686;2023-05-15T01:54:24;2.30;;;1.87;;
14776;SDS011;7480;43.124;25.686;2023-05-15T01:56:52;3.23;;;2.63;;
14776;SDS011;7480;43.124;25.686;2023-05-15T01:59:19;5.00;;;2.77;;
14776;SDS011;7480;43.124;25.686;2023-05-15T02:01:46;3.03;;;2.60;;
14776;SDS011;7480;43.124;25.686;2023-05-15T02:04:13;5.43;;;2.87;;
14776;SDS011;7480;43.124;25.686;2023-05-15T02:06:40;4.57;;;3.07;;
14776;SDS011;7480;43.124;25.686;2023-05-15T02:09:07;2.97;;;2.40;;
14776;SDS011;7480;43.124;25.686;2023-05-15T02:11:34;5.03;;;2.73;;
14776;SDS011;7480;43.124;25.686;2023-05-15T02:14:01;4.20;;;2.60;;
14776;SDS011;7480;43.124;25.686;2023-05-15T02:16:29;6.20;;;3.07;;
14776;SDS011;7480;43.124;25.686;2023-05-15T02:18:56;5.37;;;2.80;;
14776;SDS011;7480;43.124;25.686;2023-05-15T02:21:22;4.13;;;2.90;;
14776;SDS011;7480;43.124;25.686;2023-05-15T02:23:49;2.87;;;2.57;;
14776;SDS011;7480;43.124;25.686;2023-05-15T02:28:53;5.83;;;3.23;;
14776;SDS011;7480;43.124;25.686;2023-05-15T02:31:30;2.67;;;2.43;;
14776;SDS011;7480;43.124;25.686;2023-05-15T02:34:03;4.47;;;2.77;;
14776;SDS011;7480;43.124;25.686;2023-05-15T02:36:32;6.23;;;3.03;;
14776;SDS011;7480;43.124;25.686;2023-05-15T02:38:58;4.10;;;2.57;;
14776;SDS011;7480;43.124;25.686;2023-05-15T02:41:25;5.50;;;2.97;;
14776;SDS011;7480;43.124;25.686;2023-05-15T02:43:53;4.57;;;3.33;;
14776;SDS011;7480;43.124;25.686;2023-05-15T02:46:20;3.60;;;2.83;;
14776;SDS011;7480;43.124;25.686;2023-05-15T02:48:47;4.17;;;3.10;;
14776;SDS011;7480;43.124;25.686;2023-05-15T02:51:14;3.30;;;3.00;;
14776;SDS011;7480;43.124;25.686;2023-05-15T02:53:41;4.83;;;3.00;;
14776;SDS011;7480;43.124;25.686;2023-05-15T02:56:08;5.07;;;2.83;;
14776;SDS011;7480;43.124;25.686;2023-05-15T02:58:34;2.90;;;2.60;;
14776;SDS011;7480;43.124;25.686;2023-05-15T03:01:01;3.87;;;2.63;;
14776;SDS011;7480;43.124;25.686;2023-05-15T03:03:27;3.30;;;3.00;;
14776;SDS011;7480;43.124;25.686;2023-05-15T03:05:54;3.60;;;2.90;;
14776;SDS011;7480;43.124;25.686;2023-05-15T03:08:20;4.63;;;2.80;;
14776;SDS011;7480;43.124;25.686;2023-05-15T03:10:47;4.50;;;3.67;;
14776;SDS011;7480;43.124;25.686;2023-05-15T03:13:13;4.93;;;3.27;;
14776;SDS011;7480;43.124;25.686;2023-05-15T03:15:51;3.06;;;2.70;;
14776;SDS011;7480;43.124;25.686;2023-05-15T03:18:17;3.33;;;3.03;;
14776;SDS011;7480;43.124;25.686;2023-05-15T03:20:46;4.40;;;3.20;;
14776;SDS011;7480;43.124;25.686;2023-05-15T03:23:13;3.70;;;3.40;;
14776;SDS011;7480;43.124;25.686;2023-05-15T03:25:40;2.07;;;1.87;;
14776;SDS011;7480;43.124;25.686;2023-05-15T03:28:06;3.40;;;3.10;;
14776;SDS011;7480;43.124;25.686;2023-05-15T03:30:33;5.17;;;3.53;;
14776;SDS011;7480;43.124;25.686;2023-05-15T03:32:59;3.37;;;3.07;;
14776;SDS011;7480;43.124;25.686;2023-05-15T03:35:29;4.77;;;2.97;;
14776;SDS011;7480;43.124;25.686;2023-05-15T03:37:56;5.53;;;3.37;;
14776;SDS011;7480;43.124;25.686;2023-05-15T03:40:22;4.10;;;3.40;;
14776;SDS011;7480;43.124;25.686;2023-05-15T03:42:48;3.83;;;2.80;;
14776;SDS011;7480;43.124;25.686;2023-05-15T03:45:18;5.20;;;3.33;;
14776;SDS011;7480;43.124;25.686;2023-05-15T03:47:45;5.43;;;3.10;;
14776;SDS011;7480;43.124;25.686;2023-05-15T03:50:12;3.47;;;3.17;;
14776;SDS011;7480;43.124;25.686;2023-05-15T03:52:38;3.43;;;3.13;;
14776;SDS011;7480;43.124;25.686;2023-05-15T03:55:07;4.80;;;3.30;;
14776;SDS011;7480;43.124;25.686;2023-05-15T03:57:33;3.93;;;3.30;;
14776;SDS011;7480;43.124;25.686;2023-05-15T04:00:01;4.90;;;3.17;;
14776;SDS011;7480;43.124;25.686;2023-05-15T04:02:29;4.50;;;3.00;;
14776;SDS011;7480;43.124;25.686;2023-05-15T04:04:55;6.50;;;3.93;;
14776;SDS011;7480;43.124;25.686;2023-05-15T04:07:22;5.77;;;3.40;;
14776;SDS011;7480;43.124;25.686;2023-05-15T04:09:48;6.37;;;3.50;;
14776;SDS011;7480;43.124;25.686;2023-05-15T04:12:15;6.20;;;2.73;;
14776;SDS011;7480;43.124;25.686;2023-05-15T04:14:42;4.60;;;3.23;;
14776;SDS011;7480;43.124;25.686;2023-05-15T04:17:08;4.33;;;3.17;;
14776;SDS011;7480;43.124;25.686;2023-05-15T04:19:35;8.33;;;2.97;;
14776;SDS011;7480;43.124;25.686;2023-05-15T04:22:02;5.20;;;2.83;;
14776;SDS011;7480;43.124;25.686;2023-05-15T04:24:28;6.00;;;3.00;;
14776;SDS011;7480;43.124;25.686;2023-05-15T04:26:55;5.50;;;3.40;;
14776;SDS011;7480;43.124;25.686;2023-05-15T04:29:21;4.80;;;3.20;;
14776;SDS011;7480;43.124;25.686;2023-05-15T04:31:48;5.32;;;3.70;;
14776;SDS011;7480;43.124;25.686;2023-05-15T04:34:14;5.37;;;3.53;;
14776;SDS011;7480;43.124;25.686;2023-05-15T04:36:41;5.43;;;3.90;;
14776;SDS011;7480;43.124;25.686;2023-05-15T04:39:08;9.40;;;3.83;;
14776;SDS011;7480;43.124;25.686;2023-05-15T04:41:34;5.33;;;3.67;;
14776;SDS011;7480;43.124;25.686;2023-05-15T04:44:01;5.43;;;4.37;;
14776;SDS011;7480;43.124;25.686;2023-05-15T04:46:27;7.80;;;3.93;;
14776;SDS011;7480;43.124;25.686;2023-05-15T04:48:54;5.47;;;4.03;;
14776;SDS011;7480;43.124;25.686;2023-05-15T04:51:21;5.60;;;4.10;;
14776;SDS011;7480;43.124;25.686;2023-05-15T04:53:47;5.70;;;3.97;;
14776;SDS011;7480;43.124;25.686;2023-05-15T04:56:14;7.90;;;4.07;;
14776;SDS011;7480;43.124;25.686;2023-05-15T04:58:40;9.97;;;4.43;;
14776;SDS011;7480;43.124;25.686;2023-05-15T05:01:07;6.67;;;4.33;;
14776;SDS011;7480;43.124;25.686;2023-05-15T05:03:33;7.80;;;4.47;;
14776;SDS011;7480;43.124;25.686;2023-05-15T05:06:00;5.33;;;4.10;;
14776;SDS011;7480;43.124;25.686;2023-05-15T05:08:26;12.30;;;4.53;;
14776;SDS011;7480;43.124;25.686;2023-05-15T05:10:56;6.10;;;4.37;;
14776;SDS011;7480;43.124;25.686;2023-05-15T05:13:23;7.30;;;4.57;;
14776;SDS011;7480;43.124;25.686;2023-05-15T05:15:49;10.80;;;6.13;;
14776;SDS011;7480;43.124;25.686;2023-05-15T05:18:16;9.50;;;5.30;;
14776;SDS011;7480;43.124;25.686;2023-05-15T05:20:42;7.83;;;4.30;;
14776;SDS011;7480;43.124;25.686;2023-05-15T05:23:09;6.80;;;4.33;;
14776;SDS011;7480;43.124;25.686;2023-05-15T05:25:35;7.73;;;4.40;;
14776;SDS011;7480;43.124;25.686;2023-05-15T05:28:02;9.60;;;4.50;;
14776;SDS011;7480;43.124;25.686;2023-05-15T05:30:28;4.57;;;3.90;;
14776;SDS011;7480;43.124;25.686;2023-05-15T05:32:54;8.05;;;3.95;;
14776;SDS011;7480;43.124;25.686;2023-05-15T05:35:21;6.80;;;4.10;;
14776;SDS011;7480;43.124;25.686;2023-05-15T05:37:48;7.63;;;4.17;;
14776;SDS011;7480;43.124;25.686;2023-05-15T05:40:14;11.57;;;4.53;;
14776;SDS011;7480;43.124;25.686;2023-05-15T05:42:42;6.23;;;3.93;;
14776;SDS011;7480;43.124;25.686;2023-05-15T05:45:09;8.30;;;4.10;;
14776;SDS011;7480;43.124;25.686;2023-05-15T05:47:36;4.47;;;3.80;;
14776;SDS011;7480;43.124;25.686;2023-05-15T05:50:03;8.27;;;3.73;;
14776;SDS011;7480;43.124;25.686;2023-05-15T05:52:29;5.97;;;3.80;;
14776;SDS011;7480;43.124;25.686;2023-05-15T05:54:56;4.33;;;3.60;;
14776;SDS011;7480;43.124;25.686;2023-05-15T05:57:22;5.13;;;3.50;;
14776;SDS011;7480;43.124;25.686;2023-05-15T05:59:49;7.20;;;3.30;;
14776;SDS011;7480;43.124;25.686;2023-05-15T06:02:15;4.73;;;3.83;;
14776;SDS011;7480;43.124;25.686;2023-05-15T06:04:42;4.70;;;3.00;;
14776;SDS011;7480;43.124;25.686;2023-05-15T06:07:09;3.47;;;3.10;;
14776;SDS011;7480;43.124;25.686;2023-05-15T06:09:36;5.77;;;3.50;;
14776;SDS011;7480;43.124;25.686;2023-05-15T06:12:02;4.57;;;3.30;;
14776;SDS011;7480;43.124;25.686;2023-05-15T06:14:33;5.27;;;3.30;;
14776;SDS011;7480;43.124;25.686;2023-05-15T06:17:00;5.47;;;3.20;;
14776;SDS011;7480;43.124;25.686;2023-05-15T06:19:26;6.80;;;3.63;;
14776;SDS011;7480;43.124;25.686;2023-05-15T06:21:53;6.80;;;3.63;;
14776;SDS011;7480;43.124;25.686;2023-05-15T06:24:19;6.03;;;3.53;;
14776;SDS011;7480;43.124;25.686;2023-05-15T06:26:46;6.60;;;3.50;;
14776;SDS011;7480;43.124;25.686;2023-05-15T06:29:12;5.33;;;3.67;;
14776;SDS011;7480;43.124;25.686;2023-05-15T06:31:39;4.07;;;3.20;;
14776;SDS011;7480;43.124;25.686;2023-05-15T06:34:05;5.87;;;3.00;;
14776;SDS011;7480;43.124;25.686;2023-05-15T06:36:32;5.07;;;3.07;;
14776;SDS011;7480;43.124;25.686;2023-05-15T06:38:59;5.03;;;2.97;;
14776;SDS011;7480;43.124;25.686;2023-05-15T06:41:25;4.20;;;3.00;;
14776;SDS011;7480;43.124;25.686;2023-05-15T06:43:51;6.00;;;3.03;;
14776;SDS011;7480;43.124;25.686;2023-05-15T06:46:18;4.63;;;3.10;;
14776;SDS011;7480;43.124;25.686;2023-05-15T06:48:48;4.47;;;2.67;;
14776;SDS011;7480;43.124;25.686;2023-05-15T06:51:14;4.90;;;3.63;;
14776;SDS011;7480;43.124;25.686;2023-05-15T06:53:41;4.37;;;3.50;;
14776;SDS011;7480;43.124;25.686;2023-05-15T06:56:08;4.35;;;2.95;;
14776;SDS011;7480;43.124;25.686;2023-05-15T06:58:34;6.83;;;2.80;;
14776;SDS011;7480;43.124;25.686;2023-05-15T07:01:01;3.47;;;2.87;;
14776;SDS011;7480;43.124;25.686;2023-05-15T07:03:32;5.57;;;3.53;;
14776;SDS011;7480;43.124;25.686;2023-05-15T07:05:58;5.53;;;3.03;;
14776;SDS011;7480;43.124;25.686;2023-05-15T07:08:25;6.03;;;2.90;;
14776;SDS011;7480;43.124;25.686;2023-05-15T07:10:52;5.90;;;3.65;;
14776;SDS011;7480;43.124;25.686;2023-05-15T07:13:19;4.30;;;2.88;;
14776;SDS011;7480;43.124;25.686;2023-05-15T07:15:45;2.90;;;2.47;;
14776;SDS011;7480;43.124;25.686;2023-05-15T07:18:12;4.10;;;2.72;;
14776;SDS011;7480;43.124;25.686;2023-05-15T07:20:38;4.50;;;2.70;;
14776;SDS011;7480;43.124;25.686;2023-05-15T07:23:05;4.18;;;2.58;;
14776;SDS011;7480;43.124;25.686;2023-05-15T07:25:31;8.48;;;2.92;;
14776;SDS011;7480;43.124;25.686;2023-05-15T07:27:58;4.50;;;2.38;;
14776;SDS011;7480;43.124;25.686;2023-05-15T07:30:24;4.90;;;3.15;;
14776;SDS011;7480;43.124;25.686;2023-05-15T07:32:51;2.63;;;2.33;;
14776;SDS011;7480;43.124;25.686;2023-05-15T07:35:18;4.82;;;2.95;;
14776;SDS011;7480;43.124;25.686;2023-05-15T07:37:44;5.88;;;2.60;;
14776;SDS011;7480;43.124;25.686;2023-05-15T07:40:12;3.35;;;2.95;;
14776;SDS011;7480;43.124;25.686;2023-05-15T07:42:38;5.22;;;2.78;;
14776;SDS011;7480;43.124;25.686;2023-05-15T07:45:05;3.83;;;2.70;;
14776;SDS011;7480;43.124;25.686;2023-05-15T07:47:32;3.35;;;2.20;;
14776;SDS011;7480;43.124;25.686;2023-05-15T07:49:58;3.38;;;3.00;;
14776;SDS011;7480;43.124;25.686;2023-05-15T07:52:25;5.82;;;2.78;;
14776;SDS011;7480;43.124;25.686;2023-05-15T07:54:51;5.72;;;2.63;;
14776;SDS011;7480;43.124;25.686;2023-05-15T07:57:18;5.30;;;3.30;;
14776;SDS011;7480;43.124;25.686;2023-05-15T07:59:45;4.05;;;2.78;;
14776;SDS011;7480;43.124;25.686;2023-05-15T08:02:11;4.53;;;2.92;;
14776;SDS011;7480;43.124;25.686;2023-05-15T08:04:38;4.37;;;2.73;;
14776;SDS011;7480;43.124;25.686;2023-05-15T08:07:05;4.27;;;2.87;;
14776;SDS011;7480;43.124;25.686;2023-05-15T08:09:32;4.10;;;2.80;;
14776;SDS011;7480;43.124;25.686;2023-05-15T08:12:13;3.33;;;2.73;;
14776;SDS011;7480;43.124;25.686;2023-05-15T08:14:42;5.33;;;2.70;;
14776;SDS011;7480;43.124;25.686;2023-05-15T08:17:09;3.97;;;2.57;;
14776;SDS011;7480;43.124;25.686;2023-05-15T08:19:35;4.53;;;2.97;;
14776;SDS011;7480;43.124;25.686;2023-05-15T08:22:02;4.45;;;2.90;;
14776;SDS011;7480;43.124;25.686;2023-05-15T08:24:28;7.65;;;2.80;;
14776;SDS011;7480;43.124;25.686;2023-05-15T08:26:55;8.00;;;3.05;;
14776;SDS011;7480;43.124;25.686;2023-05-15T08:29:21;3.75;;;2.78;;
14776;SDS011;7480;43.124;25.686;2023-05-15T08:31:48;4.50;;;2.90;;
14776;SDS011;7480;43.124;25.686;2023-05-15T08:34:14;6.35;;;2.90;;
14776;SDS011;7480;43.124;25.686;2023-05-15T08:36:41;5.00;;;2.38;;
14776;SDS011;7480;43.124;25.686;2023-05-15T08:39:07;4.53;;;2.90;;
14776;SDS011;7480;43.124;25.686;2023-05-15T08:41:37;5.22;;;2.80;;
14776;SDS011;7480;43.124;25.686;2023-05-15T08:44:07;4.00;;;2.65;;
14776;SDS011;7480;43.124;25.686;2023-05-15T08:46:34;5.63;;;2.70;;
14776;SDS011;7480;43.124;25.686;2023-05-15T08:49:02;3.33;;;2.70;;
14776;SDS011;7480;43.124;25.686;2023-05-15T08:51:32;6.63;;;2.80;;
14776;SDS011;7480;43.124;25.686;2023-05-15T08:53:58;4.60;;;3.40;;
14776;SDS011;7480;43.124;25.686;2023-05-15T08:56:25;4.68;;;2.67;;
14776;SDS011;7480;43.124;25.686;2023-05-15T08:58:52;5.40;;;2.83;;
14776;SDS011;7480;43.124;25.686;2023-05-15T09:01:18;5.53;;;3.20;;
14776;SDS011;7480;43.124;25.686;2023-05-15T09:03:45;6.32;;;2.47;;
14776;SDS011;7480;43.124;25.686;2023-05-15T09:06:12;3.38;;;2.85;;
14776;SDS011;7480;43.124;25.686;2023-05-15T09:08:38;3.20;;;2.63;;
14776;SDS011;7480;43.124;25.686;2023-05-15T09:11:06;5.07;;;2.70;;
14776;SDS011;7480;43.124;25.686;2023-05-15T09:13:33;3.78;;;2.58;;
14776;SDS011;7480;43.124;25.686;2023-05-15T09:15:59;6.45;;;3.08;;
14776;SDS011;7480;43.124;25.686;2023-05-15T09:18:26;4.43;;;2.67;;
14776;SDS011;7480;43.124;25.686;2023-05-15T09:20:53;6.90;;;3.13;;
14776;SDS011;7480;43.124;25.686;2023-05-15T09:23:22;3.08;;;2.60;;
14776;SDS011;7480;43.124;25.686;2023-05-15T09:25:49;4.18;;;3.10;;
14776;SDS011;7480;43.124;25.686;2023-05-15T09:28:25;5.10;;;3.15;;
14776;SDS011;7480;43.124;25.686;2023-05-15T09:30:55;5.00;;;2.97;;
14776;SDS011;7480;43.124;25.686;2023-05-15T09:33:26;4.03;;;3.30;;
14776;SDS011;7480;43.124;25.686;2023-05-15T09:35:53;5.45;;;2.90;;
14776;SDS011;7480;43.124;25.686;2023-05-15T09:38:20;3.08;;;2.72;;
14776;SDS011;7480;43.124;25.686;2023-05-15T09:40:46;4.90;;;2.90;;
14776;SDS011;7480;43.124;25.686;2023-05-15T09:43:14;8.23;;;2.83;;
14776;SDS011;7480;43.124;25.686;2023-05-15T09:45:41;5.90;;;2.95;;
14776;SDS011;7480;43.124;25.686;2023-05-15T09:48:08;3.58;;;2.92;;
14776;SDS011;7480;43.124;25.686;2023-05-15T09:50:37;5.25;;;2.97;;
14776;SDS011;7480;43.124;25.686;2023-05-15T09:53:04;4.25;;;2.83;;
14776;SDS011;7480;43.124;25.686;2023-05-15T09:55:32;4.80;;;2.90;;
14776;SDS011;7480;43.124;25.686;2023-05-15T09:58:05;6.30;;;3.10;;
14776;SDS011;7480;43.124;25.686;2023-05-15T10:00:35;4.25;;;2.75;;
14776;SDS011;7480;43.124;25.686;2023-05-15T10:03:14;4.70;;;3.00;;
14776;SDS011;7480;43.124;25.686;2023-05-15T10:05:41;3.58;;;2.80;;
14776;SDS011;7480;43.124;25.686;2023-05-15T10:08:09;6.13;;;3.40;;
14776;SDS011;7480;43.124;25.686;2023-05-15T10:10:36;4.93;;;2.83;;
14776;SDS011;7480;43.124;25.686;2023-05-15T10:13:03;5.25;;;3.22;;
14776;SDS011;7480;43.124;25.686;2023-05-15T10:15:31;4.05;;;2.75;;
14776;SDS011;7480;43.124;25.686;2023-05-15T10:17:58;3.05;;;2.58;;
14776;SDS011;7480;43.124;25.686;2023-05-15T10:20:27;5.85;;;3.10;;
14776;SDS011;7480;43.124;25.686;2023-05-15T10:22:54;5.15;;;3.05;;
14776;SDS011;7480;43.124;25.686;2023-05-15T10:27:50;5.72;;;3.25;;
14776;SDS011;7480;43.124;25.686;2023-05-15T10:30:17;6.22;;;3.40;;
14776;SDS011;7480;43.124;25.686;2023-05-15T10:32:44;4.22;;;3.08;;
14776;SDS011;7480;43.124;25.686;2023-05-15T10:35:11;5.93;;;3.28;;
14776;SDS011;7480;43.124;25.686;2023-05-15T10:37:38;6.70;;;4.20;;
14776;SDS011;7480;43.124;25.686;2023-05-15T10:40:05;6.17;;;3.40;;
14776;SDS011;7480;43.124;25.686;2023-05-15T10:42:33;9.20;;;2.90;;
14776;SDS011;7480;43.124;25.686;2023-05-15T10:45:00;5.90;;;2.80;;
14776;SDS011;7480;43.124;25.686;2023-05-15T10:47:30;5.40;;;3.17;;
14776;SDS011;7480;43.124;25.686;2023-05-15T10:49:58;6.75;;;2.97;;
14776;SDS011;7480;43.124;25.686;2023-05-15T10:52:25;4.32;;;2.88;;
14776;SDS011;7480;43.124;25.686;2023-05-15T10:54:52;4.18;;;2.53;;
14776;SDS011;7480;43.124;25.686;2023-05-15T10:57:21;4.05;;;3.20;;
14776;SDS011;7480;43.124;25.686;2023-05-15T10:59:48;3.35;;;2.60;;
14776;SDS011;7480;43.124;25.686;2023-05-15T11:02:22;4.68;;;2.60;;
14776;SDS011;7480;43.124;25.686;2023-05-15T11:04:58;3.45;;;2.55;;
14776;SDS011;7480;43.124;25.686;2023-05-15T11:07:25;5.40;;;2.60;;
14776;SDS011;7480;43.124;25.686;2023-05-15T11:09:53;6.32;;;3.10;;
14776;SDS011;7480;43.124;25.686;2023-05-15T11:12:20;6.32;;;2.85;;
14776;SDS011;7480;43.124;25.686;2023-05-15T11:17:21;6.03;;;2.92;;
14776;SDS011;7480;43.124;25.686;2023-05-15T11:22:15;8.63;;;2.60;;
14776;SDS011;7480;43.124;25.686;2023-05-15T11:27:24;11.18;;;2.78;;
14776;SDS011;7480;43.124;25.686;2023-05-15T11:30:11;5.93;;;2.78;;
14776;SDS011;7480;43.124;25.686;2023-05-15T11:35:33;6.60;;;2.83;;
14776;SDS011;7480;43.124;25.686;2023-05-15T11:38:01;5.68;;;2.88;;
14776;SDS011;7480;43.124;25.686;2023-05-15T11:40:29;3.20;;;2.80;;
14776;SDS011;7480;43.124;25.686;2023-05-15T11:43:00;7.90;;;3.08;;
14776;SDS011;7480;43.124;25.686;2023-05-15T11:45:28;5.13;;;3.10;;
14776;SDS011;7480;43.124;25.686;2023-05-15T11:47:55;7.88;;;3.38;;
14776;SDS011;7480;43.124;25.686;2023-05-15T11:50:22;6.95;;;2.92;;
14776;SDS011;7480;43.124;25.686;2023-05-15T11:52:49;4.30;;;2.90;;
14776;SDS011;7480;43.124;25.686;2023-05-15T11:55:17;4.80;;;2.70;;
14776;SDS011;7480;43.124;25.686;2023-05-15T11:57:45;7.40;;;3.00;;
14776;SDS011;7480;43.124;25.686;2023-05-15T12:00:11;5.97;;;2.88;;
14776;SDS011;7480;43.124;25.686;2023-05-15T12:02:38;5.18;;;3.30;;
14776;SDS011;7480;43.124;25.686;2023-05-15T12:05:05;4.43;;;2.75;;
14776;SDS011;7480;43.124;25.686;2023-05-15T12:07:41;7.57;;;3.42;;
14776;SDS011;7480;43.124;25.686;2023-05-15T12:10:12;8.10;;;3.60;;
14776;SDS011;7480;43.124;25.686;2023-05-15T12:12:42;5.28;;;3.55;;
14776;SDS011;7480;43.124;25.686;2023-05-15T12:15:09;5.30;;;3.33;;
14776;SDS011;7480;43.124;25.686;2023-05-15T12:17:39;4.55;;;3.13;;
14776;SDS011;7480;43.124;25.686;2023-05-15T12:20:06;7.43;;;3.63;;
14776;SDS011;7480;43.124;25.686;2023-05-15T12:22:40;6.70;;;3.50;;
14776;SDS011;7480;43.124;25.686;2023-05-15T12:25:08;5.35;;;3.60;;
14776;SDS011;7480;43.124;25.686;2023-05-15T12:27:39;7.85;;;3.38;;
14776;SDS011;7480;43.124;25.686;2023-05-15T12:30:06;5.50;;;3.83;;
14776;SDS011;7480;43.124;25.686;2023-05-15T12:32:33;7.15;;;3.42;;
14776;SDS011;7480;43.124;25.686;2023-05-15T12:35:00;9.40;;;3.47;;
14776;SDS011;7480;43.124;25.686;2023-05-15T12:37:29;7.78;;;3.78;;
14776;SDS011;7480;43.124;25.686;2023-05-15T12:39:58;7.18;;;3.50;;
14776;SDS011;7480;43.124;25.686;2023-05-15T12:42:25;6.22;;;3.53;;
14776;SDS011;7480;43.124;25.686;2023-05-15T12:44:53;7.82;;;3.60;;
14776;SDS011;7480;43.124;25.686;2023-05-15T12:47:23;7.78;;;3.70;;
14776;SDS011;7480;43.124;25.686;2023-05-15T12:49:54;6.18;;;2.60;;
14776;SDS011;7480;43.124;25.686;2023-05-15T12:52:20;4.13;;;3.05;;
14776;SDS011;7480;43.124;25.686;2023-05-15T12:54:47;5.30;;;3.13;;
14776;SDS011;7480;43.124;25.686;2023-05-15T12:57:13;8.05;;;3.72;;
14776;SDS011;7480;43.124;25.686;2023-05-15T12:59:40;6.97;;;3.10;;
14776;SDS011;7480;43.124;25.686;2023-05-15T13:02:10;6.03;;;3.17;;
14776;SDS011;7480;43.124;25.686;2023-05-15T13:04:37;4.07;;;2.80;;
14776;SDS011;7480;43.124;25.686;2023-05-15T13:07:04;11.45;;;3.72;;
14776;SDS011;7480;43.124;25.686;2023-05-15T13:09:31;7.85;;;3.80;;
14776;SDS011;7480;43.124;25.686;2023-05-15T13:12:00;8.85;;;3.50;;
14776;SDS011;7480;43.124;25.686;2023-05-15T13:14:30;5.40;;;3.40;;
14776;SDS011;7480;43.124;25.686;2023-05-15T13:16:58;8.38;;;3.53;;
14776;SDS011;7480;43.124;25.686;2023-05-15T13:19:25;5.05;;;2.95;;
14776;SDS011;7480;43.124;25.686;2023-05-15T13:21:52;5.82;;;3.28;;
14776;SDS011;7480;43.124;25.686;2023-05-15T13:24:19;5.82;;;3.20;;
14776;SDS011;7480;43.124;25.686;2023-05-15T13:26:45;4.95;;;3.15;;
14776;SDS011;7480;43.124;25.686;2023-05-15T13:29:12;4.93;;;3.00;;
14776;SDS011;7480;43.124;25.686;2023-05-15T13:31:38;6.57;;;3.00;;
14776;SDS011;7480;43.124;25.686;2023-05-15T13:34:05;7.22;;;3.55;;
14776;SDS011;7480;43.124;25.686;2023-05-15T13:36:31;6.60;;;3.58;;
14776;SDS011;7480;43.124;25.686;2023-05-15T13:38:58;6.88;;;4.00;;
14776;SDS011;7480;43.124;25.686;2023-05-15T13:41:24;7.80;;;3.10;;
14776;SDS011;7480;43.124;25.686;2023-05-15T13:43:51;6.32;;;2.90;;
14776;SDS011;7480;43.124;25.686;2023-05-15T13:46:18;8.85;;;4.05;;
14776;SDS011;7480;43.124;25.686;2023-05-15T13:48:44;5.18;;;2.88;;
14776;SDS011;7480;43.124;25.686;2023-05-15T13:51:11;5.53;;;2.97;;
14776;SDS011;7480;43.124;25.686;2023-05-15T13:53:37;4.07;;;3.22;;
14776;SDS011;7480;43.124;25.686;2023-05-15T13:56:04;6.18;;;3.05;;
14776;SDS011;7480;43.124;25.686;2023-05-15T13:58:30;5.22;;;3.40;;
14776;SDS011;7480;43.124;25.686;2023-05-15T14:00:57;6.30;;;3.90;;
14776;SDS011;7480;43.124;25.686;2023-05-15T14:03:23;7.05;;;3.17;;
14776;SDS011;7480;43.124;25.686;2023-05-15T14:05:50;3.28;;;2.97;;
14776;SDS011;7480;43.124;25.686;2023-05-15T14:08:22;3.98;;;2.88;;
14776;SDS011;7480;43.124;25.686;2023-05-15T14:10:49;6.38;;;3.35;;
14776;SDS011;7480;43.124;25.686;2023-05-15T14:13:16;7.57;;;3.53;;
14776;SDS011;7480;43.124;25.686;2023-05-15T14:15:42;4.57;;;3.25;;
14776;SDS011;7480;43.124;25.686;2023-05-15T14:18:09;6.00;;;3.25;;
14776;SDS011;7480;43.124;25.686;2023-05-15T14:20:35;6.60;;;3.13;;
14776;SDS011;7480;43.124;25.686;2023-05-15T14:23:02;9.18;;;3.05;;
14776;SDS011;7480;43.124;25.686;2023-05-15T14:25:28;4.68;;;2.97;;
14776;SDS011;7480;43.124;25.686;2023-05-15T14:27:55;6.28;;;3.25;;
14776;SDS011;7480;43.124;25.686;2023-05-15T14:30:21;6.57;;;2.88;;
14776;SDS011;7480;43.124;25.686;2023-05-15T14:32:48;5.90;;;3.03;;
14776;SDS011;7480;43.124;25.686;2023-05-15T14:35:15;7.05;;;3.10;;
14776;SDS011;7480;43.124;25.686;2023-05-15T14:37:41;10.18;;;3.05;;
14776;SDS011;7480;43.124;25.686;2023-05-15T14:40:08;7.60;;;3.35;;
14776;SDS011;7480;43.124;25.686;2023-05-15T14:42:35;8.02;;;3.53;;
14776;SDS011;7480;43.124;25.686;2023-05-15T14:45:02;11.02;;;4.00;;
14776;SDS011;7480;43.124;25.686;2023-05-15T14:47:30;4.93;;;2.95;;
14776;SDS011;7480;43.124;25.686;2023-05-15T14:49:56;9.50;;;3.33;;
14776;SDS011;7480;43.124;25.686;2023-05-15T14:52:23;5.40;;;2.95;;
14776;SDS011;7480;43.124;25.686;2023-05-15T14:54:49;8.43;;;3.38;;
14776;SDS011;7480;43.124;25.686;2023-05-15T14:57:33;6.18;;;2.95;;
14776;SDS011;7480;43.124;25.686;2023-05-15T15:00:00;7.70;;;3.90;;
14776;SDS011;7480;43.124;25.686;2023-05-15T15:02:26;8.05;;;3.47;;
14776;SDS011;7480;43.124;25.686;2023-05-15T15:04:53;7.78;;;3.50;;
14776;SDS011;7480;43.124;25.686;2023-05-15T15:07:19;9.90;;;3.25;;
14776;SDS011;7480;43.124;25.686;2023-05-15T15:09:46;6.88;;;3.35;;
14776;SDS011;7480;43.124;25.686;2023-05-15T15:12:12;4.60;;;3.05;;
14776;SDS011;7480;43.124;25.686;2023-05-15T15:14:39;7.53;;;3.13;;